sensor_id;sensor_type;location;lat;lon;timestamp;pressure;altitude;pressure_sealevel;temperature;humidity
32237;BME280;18726;44.732;10.550;2023-05-01T00:01:37;100960.97;;;15.44;100.00
32237;BME280;18726;44.732;10.550;2023-05-01T00:04:41;100960.53;;;15.42;100.00
32237;BME280;18726;44.732;10.550;2023-05-01T00:07:45;100960.13;;;15.40;100.00
32237;BME280;18726;44.732;10.550;2023-05-01T00:10:48;100962.03;;;15.36;100.00
32237;BME280;18726;44.732;10.550;2023-05-01T00:13:52;100957.91;;;15.49;100.00
32237;BME280;18726;44.732;10.550;2023-05-01T00:16:56;100955.59;;;15.51;100.00
32237;BME280;18726;44.732;10.550;2023-05-01T00:20:00;100955.59;;;15.51;100.00
32237;BME280;18726;44.732;10.550;2023-05-01T00:23:04;100946.28;;;15.56;100.00
32237;BME280;18726;44.732;10.550;2023-05-01T00:26:09;100943.97;;;15.58;100.00
32237;BME280;18726;44.732;10.550;2023-05-01T00:29:13;100950.09;;;15.51;100.00
32237;BME280;18726;44.732;10.550;2023-05-01T00:32:17;100943.06;;;15.50;100.00
32237;BME280;18726;44.732;10.550;2023-05-01T00:35:21;100950.38;;;15.43;100.00
32237;BME280;18726;44.732;10.550;2023-05-01T00:38:25;100943.78;;;15.47;100.00
32237;BME280;18726;44.732;10.550;2023-05-01T00:41:28;100946.13;;;15.45;100.00
32237;BME280;18726;44.732;10.550;2023-05-01T00:44:33;100946.84;;;15.42;100.00
32237;BME280;18726;44.732;10.550;2023-05-01T00:47:37;100945.59;;;15.36;100.00
32237;BME280;18726;44.732;10.550;2023-05-01T00:50:42;100940.91;;;15.37;100.00
32237;BME280;18726;44.732;10.550;2023-05-01T00:53:46;100938.91;;;15.30;100.00
32237;BME280;18726;44.732;10.550;2023-05-01T00:56:50;100940.44;;;15.31;100.00
32237;BME280;18726;44.732;10.550;2023-05-01T00:59:54;100942.13;;;15.39;100.00
32237;BME280;18726;44.732;10.550;2023-05-01T01:02:58;100942.88;;;15.36;100.00
32237;BME280;18726;44.732;10.550;2023-05-01T01:06:14;100942.81;;;15.33;100.00
32237;BME280;18726;44.732;10.550;2023-05-01T01:13:03;100944.38;;;15.30;100.00
32237;BME280;18726;44.732;10.550;2023-05-01T01:16:26;100934.59;;;15.29;100.00
32237;BME280;18726;44.732;10.550;2023-05-01T01:22:42;100934.16;;;15.27;100.00
32237;BME280;18726;44.732;10.550;2023-05-01T01:35:56;100926.97;;;15.15;100.00
32237;BME280;18726;44.732;10.550;2023-05-01T01:42:33;100914.50;;;15.18;100.00
32237;BME280;18726;44.732;10.550;2023-05-01T01:45:39;100913.00;;;15.24;100.00
32237;BME280;18726;44.732;10.550;2023-05-01T01:48:47;100912.28;;;15.27;100.00
32237;BME280;18726;44.732;10.550;2023-05-01T01:51:53;100920.47;;;15.27;100.00
32237;BME280;18726;44.732;10.550;2023-05-01T01:55:10;100913.00;;;15.24;100.00
32237;BME280;18726;44.732;10.550;2023-05-01T01:58:15;100915.38;;;15.26;100.00
32237;BME280;18726;44.732;10.550;2023-05-01T02:01:21;100925.53;;;15.25;100.00
32237;BME280;18726;44.732;10.550;2023-05-01T02:04:27;100920.06;;;15.25;100.00
32237;BME280;18726;44.732;10.550;2023-05-01T02:07:34;100918.53;;;15.28;100.00
32237;BME280;18726;44.732;10.550;2023-05-01T02:10:40;100916.22;;;15.33;100.00
32237;BME280;18726;44.732;10.550;2023-05-01T02:13:46;100915.50;;;15.36;100.00
32237;BME280;18726;44.732;10.550;2023-05-01T02:16:51;100904.25;;;15.45;100.00
32237;BME280;18726;44.732;10.550;2023-05-01T02:19:56;100910.31;;;15.58;100.00
32237;BME280;18726;44.732;10.550;2023-05-01T02:23:02;100903.31;;;15.64;100.00
32237;BME280;18726;44.732;10.550;2023-05-01T02:26:08;100901.41;;;15.68;100.00
32237;BME280;18726;44.732;10.550;2023-05-01T02:29:16;100904.22;;;15.75;100.00
32237;BME280;18726;44.732;10.550;2023-05-01T02:32:19;100898.00;;;15.78;100.00
32237;BME280;18726;44.732;10.550;2023-05-01T02:35:23;100902.72;;;15.81;100.00
32237;BME280;18726;44.732;10.550;2023-05-01T02:38:27;100907.47;;;15.84;100.00
32237;BME280;18726;44.732;10.550;2023-05-01T02:41:34;100899.66;;;15.86;100.00
32237;BME280;18726;44.732;10.550;2023-05-01T02:44:41;100895.75;;;15.87;100.00
32237;BME280;18726;44.732;10.550;2023-05-01T02:47:50;100900.44;;;15.90;100.00
32237;BME280;18726;44.732;10.550;2023-05-01T02:50:55;100906.72;;;15.87;100.00
32237;BME280;18726;44.732;10.550;2023-05-01T02:54:00;100901.97;;;15.84;100.00
32237;BME280;18726;44.732;10.550;2023-05-01T02:57:04;100901.53;;;15.78;100.00
32237;BME280;18726;44.732;10.550;2023-05-01T03:00:08;100902.59;;;15.70;100.00
32237;BME280;18726;44.732;10.550;2023-05-01T03:03:12;100897.91;;;15.71;100.00
32237;BME280;18726;44.732;10.550;2023-05-01T03:06:16;100898.00;;;15.44;100.00
32237;BME280;18726;44.732;10.550;2023-05-01T03:09:21;100899.06;;;15.36;100.00
32237;BME280;18726;44.732;10.550;2023-05-01T03:12:25;100899.31;;;15.24;100.00
32237;BME280;18726;44.732;10.550;2023-05-01T03:15:28;100897.44;;;15.28;100.00
32237;BME280;18726;44.732;10.550;2023-05-01T03:18:32;100895.06;;;15.27;100.00
32237;BME280;18726;44.732;10.550;2023-05-01T03:21:35;100898.06;;;15.18;100.00
32237;BME280;18726;44.732;10.550;2023-05-01T03:24:40;100895.44;;;14.95;100.00
32237;BME280;18726;44.732;10.550;2023-05-01T03:27:43;100903.59;;;14.92;100.00
32237;BME280;18726;44.732;10.550;2023-05-01T03:30:49;100901.28;;;14.94;100.00
32237;BME280;18726;44.732;10.550;2023-05-01T03:33:52;100897.59;;;14.82;100.00
32237;BME280;18726;44.732;10.550;2023-05-01T03:36:56;100885.22;;;14.62;100.00
32237;BME280;18726;44.732;10.550;2023-05-01T03:40:03;100890.22;;;14.34;100.00
32237;BME280;18726;44.732;10.550;2023-05-01T03:43:35;100883.59;;;14.35;100.00
32237;BME280;18726;44.732;10.550;2023-05-01T03:46:45;100876.72;;;14.22;100.00
32237;BME280;18726;44.732;10.550;2023-05-01T03:49:55;100868.06;;;14.16;100.00
32237;BME280;18726;44.732;10.550;2023-05-01T03:52:59;100875.94;;;14.21;100.00
32237;BME280;18726;44.732;10.550;2023-05-01T03:56:03;100883.25;;;14.13;100.00
32237;BME280;18726;44.732;10.550;2023-05-01T03:59:06;100877.09;;;14.20;100.00
32237;BME280;18726;44.732;10.550;2023-05-01T04:02:10;100874.63;;;14.11;100.00
32237;BME280;18726;44.732;10.550;2023-05-01T04:05:14;100879.47;;;14.22;100.00
32237;BME280;18726;44.732;10.550;2023-05-01T04:08:23;100886.56;;;14.26;100.00
32237;BME280;18726;44.732;10.550;2023-05-01T04:11:27;100879.16;;;14.27;100.00
32237;BME280;18726;44.732;10.550;2023-05-01T04:14:31;100877.22;;;14.27;100.00
32237;BME280;18726;44.732;10.550;2023-05-01T04:17:35;100880.44;;;14.33;100.00
32237;BME280;18726;44.732;10.550;2023-05-01T04:20:39;100885.47;;;14.31;100.00
32237;BME280;18726;44.732;10.550;2023-05-01T04:23:43;100886.03;;;14.40;100.00
32237;BME280;18726;44.732;10.550;2023-05-01T04:26:47;100895.38;;;14.39;100.00
32237;BME280;18726;44.732;10.550;2023-05-01T04:29:51;100891.38;;;14.33;100.00
32237;BME280;18726;44.732;10.550;2023-05-01T04:32:55;100892.69;;;14.19;100.00
32237;BME280;18726;44.732;10.550;2023-05-01T04:35:58;100900.72;;;14.32;100.00
32237;BME280;18726;44.732;10.550;2023-05-01T04:39:03;100895.63;;;14.30;100.00
32237;BME280;18726;44.732;10.550;2023-05-01T04:42:07;100899.13;;;14.31;100.00
32237;BME280;18726;44.732;10.550;2023-05-01T04:45:11;100902.34;;;14.36;100.00
32237;BME280;18726;44.732;10.550;2023-05-01T04:48:15;100911.66;;;14.32;100.00
32237;BME280;18726;44.732;10.550;2023-05-01T04:51:18;100900.84;;;14.39;100.00
32237;BME280;18726;44.732;10.550;2023-05-01T04:54:23;100906.91;;;14.29;100.00
32237;BME280;18726;44.732;10.550;2023-05-01T04:57:28;100909.28;;;14.30;100.00
32237;BME280;18726;44.732;10.550;2023-05-01T05:00:33;100907.63;;;14.26;100.00
32237;BME280;18726;44.732;10.550;2023-05-01T05:03:37;100908.38;;;14.23;100.00
32237;BME280;18726;44.732;10.550;2023-05-01T05:06:41;100913.22;;;14.33;100.00
32237;BME280;18726;44.732;10.550;2023-05-01T05:09:51;100913.59;;;14.31;100.00
32237;BME280;18726;44.732;10.550;2023-05-01T05:12:55;100917.84;;;14.29;100.00
32237;BME280;18726;44.732;10.550;2023-05-01T05:15:59;100916.38;;;14.35;100.00
32237;BME280;18726;44.732;10.550;2023-05-01T05:19:03;100918.13;;;14.43;100.00
32237;BME280;18726;44.732;10.550;2023-05-01T05:22:12;100916.38;;;14.35;100.00
32237;BME280;18726;44.732;10.550;2023-05-01T05:25:34;100915.78;;;14.45;100.00
32237;BME280;18726;44.732;10.550;2023-05-01T05:28:38;100920.94;;;14.50;100.00
32237;BME280;18726;44.732;10.550;2023-05-01T05:31:44;100929.38;;;14.64;100.00
32237;BME280;18726;44.732;10.550;2023-05-01T05:34:48;100932.47;;;14.63;100.00
32237;BME280;18726;44.732;10.550;2023-05-01T05:37:52;100934.00;;;14.60;100.00
32237;BME280;18726;44.732;10.550;2023-05-01T05:40:55;100936.06;;;14.67;100.00
32237;BME280;18726;44.732;10.550;2023-05-01T05:44:00;100934.53;;;14.69;100.00
32237;BME280;18726;44.732;10.550;2023-05-01T05:47:04;100939.66;;;14.74;100.00
32237;BME280;18726;44.732;10.550;2023-05-01T05:50:10;100934.31;;;14.81;100.00
32237;BME280;18726;44.732;10.550;2023-05-01T05:53:14;100942.94;;;14.83;100.00
32237;BME280;18726;44.732;10.550;2023-05-01T05:56:20;100947.72;;;14.90;100.00
32237;BME280;18726;44.732;10.550;2023-05-01T05:59:23;100954.41;;;14.93;100.00
32237;BME280;18726;44.732;10.550;2023-05-01T06:02:27;100957.78;;;14.82;100.00
32237;BME280;18726;44.732;10.550;2023-05-01T06:05:31;100954.72;;;14.88;100.00
32237;BME280;18726;44.732;10.550;2023-05-01T06:08:36;100950.47;;;14.90;100.00
32237;BME280;18726;44.732;10.550;2023-05-01T06:11:42;100965.78;;;14.95;100.00
32237;BME280;18726;44.732;10.550;2023-05-01T06:14:46;100966.63;;;15.02;100.00
32237;BME280;18726;44.732;10.550;2023-05-01T06:17:49;100966.63;;;15.02;100.00
32237;BME280;18726;44.732;10.550;2023-05-01T06:20:53;100967.34;;;14.96;100.00
32237;BME280;18726;44.732;10.550;2023-05-01T06:23:57;100969.91;;;15.11;100.00
32237;BME280;18726;44.732;10.550;2023-05-01T06:27:07;100972.09;;;14.99;100.00
32237;BME280;18726;44.732;10.550;2023-05-01T06:30:11;100973.75;;;15.07;100.00
32237;BME280;18726;44.732;10.550;2023-05-01T06:33:17;100973.97;;;15.21;100.00
32237;BME280;18726;44.732;10.550;2023-05-01T06:36:25;100976.38;;;15.26;100.00
32237;BME280;18726;44.732;10.550;2023-05-01T06:39:28;100977.13;;;15.23;100.00
32237;BME280;18726;44.732;10.550;2023-05-01T06:42:32;100976.28;;;15.19;100.00
32237;BME280;18726;44.732;10.550;2023-05-01T06:45:38;100986.44;;;15.18;100.00
32237;BME280;18726;44.732;10.550;2023-05-01T06:48:43;100987.31;;;15.26;100.00
32237;BME280;18726;44.732;10.550;2023-05-01T06:51:50;100983.84;;;15.29;100.00
32237;BME280;18726;44.732;10.550;2023-05-01T06:54:53;100991.75;;;15.38;100.00
32237;BME280;18726;44.732;10.550;2023-05-01T06:57:57;101000.50;;;15.47;100.00
32237;BME280;18726;44.732;10.550;2023-05-01T07:01:01;101000.28;;;15.29;100.00
32237;BME280;18726;44.732;10.550;2023-05-01T07:04:05;101000.78;;;15.38;100.00
32237;BME280;18726;44.732;10.550;2023-05-01T07:07:09;101004.72;;;15.41;100.00
32237;BME280;18726;44.732;10.550;2023-05-01T07:10:13;100998.19;;;15.49;100.00
32237;BME280;18726;44.732;10.550;2023-05-01T07:13:18;101003.72;;;15.52;100.00
32237;BME280;18726;44.732;10.550;2023-05-01T07:16:21;101000.59;;;15.84;100.00
32237;BME280;18726;44.732;10.550;2023-05-01T07:19:25;100999.16;;;15.97;100.00
32237;BME280;18726;44.732;10.550;2023-05-01T07:22:28;101007.56;;;16.11;100.00
32237;BME280;18726;44.732;10.550;2023-05-01T07:25:31;101008.75;;;16.14;100.00
32237;BME280;18726;44.732;10.550;2023-05-01T07:28:35;101008.75;;;16.17;100.00
32237;BME280;18726;44.732;10.550;2023-05-01T07:31:38;101004.66;;;15.97;100.00
32237;BME280;18726;44.732;10.550;2023-05-01T07:34:44;101005.25;;;15.80;100.00
32237;BME280;18726;44.732;10.550;2023-05-01T07:37:49;101000.66;;;15.91;100.00
32237;BME280;18726;44.732;10.550;2023-05-01T07:40:55;101005.44;;;15.98;100.00
32237;BME280;18726;44.732;10.550;2023-05-01T07:43:59;101006.38;;;16.12;100.00
32237;BME280;18726;44.732;10.550;2023-05-01T07:47:03;101013.75;;;16.45;100.00
32237;BME280;18726;44.732;10.550;2023-05-01T07:50:11;101019.41;;;16.63;100.00
32237;BME280;18726;44.732;10.550;2023-05-01T07:53:15;101008.03;;;17.12;100.00
32237;BME280;18726;44.732;10.550;2023-05-01T07:56:18;101013.59;;;17.27;100.00
32237;BME280;18726;44.732;10.550;2023-05-01T07:59:22;101019.06;;;18.06;100.00
32237;BME280;18726;44.732;10.550;2023-05-01T08:02:26;101018.34;;;18.41;100.00
32237;BME280;18726;44.732;10.550;2023-05-01T08:05:30;101023.78;;;18.09;100.00
32237;BME280;18726;44.732;10.550;2023-05-01T08:08:34;101018.72;;;18.29;100.00
32237;BME280;18726;44.732;10.550;2023-05-01T08:11:38;101020.25;;;18.05;100.00
32237;BME280;18726;44.732;10.550;2023-05-01T08:14:42;101026.53;;;18.09;100.00
32237;BME280;18726;44.732;10.550;2023-05-01T08:17:45;101026.53;;;18.09;100.00
32237;BME280;18726;44.732;10.550;2023-05-01T08:20:49;101021.03;;;18.02;100.00
32237;BME280;18726;44.732;10.550;2023-05-01T08:23:54;101010.94;;;17.44;100.00
32237;BME280;18726;44.732;10.550;2023-05-01T08:26:58;101012.41;;;17.24;100.00
32237;BME280;18726;44.732;10.550;2023-05-01T08:47:38;101038.19;;;17.74;100.00
32237;BME280;18726;44.732;10.550;2023-05-01T08:50:44;101033.94;;;17.91;100.00
32237;BME280;18726;44.732;10.550;2023-05-01T08:53:50;101027.50;;;17.59;100.00
32237;BME280;18726;44.732;10.550;2023-05-01T08:56:55;101028.31;;;17.59;100.00
32237;BME280;18726;44.732;10.550;2023-05-01T09:00:03;101035.78;;;17.66;100.00
32237;BME280;18726;44.732;10.550;2023-05-01T09:03:10;101034.00;;;18.05;100.00
32237;BME280;18726;44.732;10.550;2023-05-01T09:06:15;101033.41;;;17.61;100.00
32237;BME280;18726;44.732;10.550;2023-05-01T09:09:18;101030.25;;;17.59;100.00
32237;BME280;18726;44.732;10.550;2023-05-01T09:12:24;101033.84;;;17.70;100.00
32237;BME280;18726;44.732;10.550;2023-05-01T09:15:28;101029.69;;;18.08;100.00
32237;BME280;18726;44.732;10.550;2023-05-01T09:18:33;101032.19;;;17.54;100.00
32237;BME280;18726;44.732;10.550;2023-05-01T09:21:37;101026.34;;;17.60;100.00
32237;BME280;18726;44.732;10.550;2023-05-01T09:24:42;101032.84;;;18.17;100.00
32237;BME280;18726;44.732;10.550;2023-05-01T09:27:46;101035.25;;;18.47;100.00
32237;BME280;18726;44.732;10.550;2023-05-01T09:30:50;101036.88;;;18.76;100.00
32237;BME280;18726;44.732;10.550;2023-05-01T09:33:56;101032.16;;;18.66;100.00
32237;BME280;18726;44.732;10.550;2023-05-01T09:37:00;101028.63;;;18.76;100.00
32237;BME280;18726;44.732;10.550;2023-05-01T09:40:12;101027.03;;;18.65;100.00
32237;BME280;18726;44.732;10.550;2023-05-01T09:43:26;101021.91;;;18.77;100.00
32237;BME280;18726;44.732;10.550;2023-05-01T09:46:40;101018.75;;;18.47;100.00
32237;BME280;18726;44.732;10.550;2023-05-01T09:49:45;101011.63;;;18.21;100.00
32237;BME280;18726;44.732;10.550;2023-05-01T09:52:50;101000.66;;;18.49;100.00
32237;BME280;18726;44.732;10.550;2023-05-01T09:56:01;100993.63;;;18.66;100.00
32237;BME280;18726;44.732;10.550;2023-05-01T09:59:16;101000.25;;;19.18;98.75
32237;BME280;18726;44.732;10.550;2023-05-01T10:02:27;100991.88;;;19.61;93.91
32237;BME280;18726;44.732;10.550;2023-05-01T10:05:42;100989.31;;;18.76;95.83
32237;BME280;18726;44.732;10.550;2023-05-01T10:08:49;100999.84;;;19.06;87.33
32237;BME280;18726;44.732;10.550;2023-05-01T10:11:55;101013.22;;;19.25;89.60
32237;BME280;18726;44.732;10.550;2023-05-01T10:14:59;101011.69;;;19.03;86.04
32237;BME280;18726;44.732;10.550;2023-05-01T10:18:03;101003.84;;;18.73;88.35
32237;BME280;18726;44.732;10.550;2023-05-01T10:21:07;101008.91;;;19.06;87.79
32237;BME280;18726;44.732;10.550;2023-05-01T10:24:13;100996.75;;;18.97;93.20
32237;BME280;18726;44.732;10.550;2023-05-01T10:27:19;101013.25;;;19.04;89.45
32237;BME280;18726;44.732;10.550;2023-05-01T10:30:25;101005.44;;;18.67;89.63
32237;BME280;18726;44.732;10.550;2023-05-01T10:33:29;101006.22;;;18.64;89.08
32237;BME280;18726;44.732;10.550;2023-05-01T10:36:42;101009.31;;;18.51;90.04
32237;BME280;18726;44.732;10.550;2023-05-01T10:39:47;100999.91;;;18.63;93.13
32237;BME280;18726;44.732;10.550;2023-05-01T10:43:27;100995.94;;;18.57;93.56
32237;BME280;18726;44.732;10.550;2023-05-01T10:46:31;101004.63;;;18.87;97.83
32237;BME280;18726;44.732;10.550;2023-05-01T10:50:01;100999.53;;;18.75;100.00
32237;BME280;18726;44.732;10.550;2023-05-01T11:06:24;100985.75;;;18.61;87.68
32237;BME280;18726;44.732;10.550;2023-05-01T11:09:39;100981.81;;;18.91;88.97
32237;BME280;18726;44.732;10.550;2023-05-01T11:12:48;100986.91;;;18.92;90.07
32237;BME280;18726;44.732;10.550;2023-05-01T11:15:53;100980.19;;;19.11;89.35
32237;BME280;18726;44.732;10.550;2023-05-01T11:18:57;100975.38;;;19.40;89.37
32237;BME280;18726;44.732;10.550;2023-05-01T11:22:01;100967.59;;;19.13;90.96
32237;BME280;18726;44.732;10.550;2023-05-01T11:25:28;100970.22;;;19.60;92.94
32237;BME280;18726;44.732;10.550;2023-05-01T11:28:37;100973.84;;;19.32;88.14
32237;BME280;18726;44.732;10.550;2023-05-01T11:31:41;100962.06;;;19.24;87.64
32237;BME280;18726;44.732;10.550;2023-05-01T11:34:45;100966.06;;;18.87;91.93
32237;BME280;18726;44.732;10.550;2023-05-01T11:37:51;100970.00;;;18.94;86.77
32237;BME280;18726;44.732;10.550;2023-05-01T11:40:57;100967.59;;;19.13;84.25
32237;BME280;18726;44.732;10.550;2023-05-01T11:44:02;100966.00;;;19.23;87.28
32237;BME280;18726;44.732;10.550;2023-05-01T11:47:06;100967.63;;;19.03;88.71
32237;BME280;18726;44.732;10.550;2023-05-01T11:50:11;100962.09;;;19.17;91.46
32237;BME280;18726;44.732;10.550;2023-05-01T11:53:15;100960.56;;;18.95;95.19
32237;BME280;18726;44.732;10.550;2023-05-01T11:56:20;100962.56;;;18.62;96.04
32237;BME280;18726;44.732;10.550;2023-05-01T11:59:24;100963.31;;;18.59;94.28
32237;BME280;18726;44.732;10.550;2023-05-01T12:02:28;100957.03;;;18.59;97.58
32237;BME280;18726;44.732;10.550;2023-05-01T12:05:33;100956.69;;;18.67;95.91
32237;BME280;18726;44.732;10.550;2023-05-01T12:08:43;100955.06;;;18.55;96.83
32237;BME280;18726;44.732;10.550;2023-05-01T12:11:51;100960.19;;;18.50;92.28
32237;BME280;18726;44.732;10.550;2023-05-01T12:14:55;100953.53;;;18.47;100.00
32237;BME280;18726;44.732;10.550;2023-05-01T12:17:58;100964.09;;;18.24;100.00
32237;BME280;18726;44.732;10.550;2023-05-01T12:21:02;100954.22;;;17.84;100.00
32237;BME280;18726;44.732;10.550;2023-05-01T12:27:10;100957.31;;;17.72;100.00
32237;BME280;18726;44.732;10.550;2023-05-01T12:30:23;100954.97;;;17.74;100.00
32237;BME280;18726;44.732;10.550;2023-05-01T12:33:27;100958.81;;;17.62;100.00
32237;BME280;18726;44.732;10.550;2023-05-01T12:36:33;100954.44;;;17.43;100.00
32237;BME280;18726;44.732;10.550;2023-05-01T12:39:39;100950.97;;;17.53;100.00
32237;BME280;18726;44.732;10.550;2023-05-01T12:42:56;100948.63;;;17.63;100.00
32237;BME280;18726;44.732;10.550;2023-05-01T12:46:04;100941.69;;;17.90;100.00
32237;BME280;18726;44.732;10.550;2023-05-01T12:49:08;100949.19;;;18.14;100.00
32237;BME280;18726;44.732;10.550;2023-05-01T12:52:12;100936.59;;;18.06;100.00
32237;BME280;18726;44.732;10.550;2023-05-01T12:55:16;100942.84;;;18.00;100.00
32237;BME280;18726;44.732;10.550;2023-05-01T12:58:20;100938.53;;;17.99;100.00
32237;BME280;18726;44.732;10.550;2023-05-01T13:01:26;100930.69;;;17.97;100.00
32237;BME280;18726;44.732;10.550;2023-05-01T13:04:30;100938.50;;;17.81;100.00
32237;BME280;18726;44.732;10.550;2023-05-01T13:07:35;100942.41;;;17.73;100.00
32237;BME280;18726;44.732;10.550;2023-05-01T13:10:39;100945.53;;;17.68;100.00
32237;BME280;18726;44.732;10.550;2023-05-01T13:13:44;100933.31;;;17.58;100.00
32237;BME280;18726;44.732;10.550;2023-05-01T13:16:48;100930.53;;;17.47;100.00
32237;BME280;18726;44.732;10.550;2023-05-01T13:19:53;100929.31;;;17.41;100.00
32237;BME280;18726;44.732;10.550;2023-05-01T13:22:57;100925.75;;;17.27;100.00
32237;BME280;18726;44.732;10.550;2023-05-01T13:26:01;100917.22;;;17.53;100.00
32237;BME280;18726;44.732;10.550;2023-05-01T13:29:13;100924.25;;;17.50;100.00
32237;BME280;18726;44.732;10.550;2023-05-01T13:32:17;100918.81;;;17.61;100.00
32237;BME280;18726;44.732;10.550;2023-05-01T13:35:22;100922.69;;;17.49;100.00
32237;BME280;18726;44.732;10.550;2023-05-01T13:38:27;100914.88;;;17.59;100.00
32237;BME280;18726;44.732;10.550;2023-05-01T13:41:32;100907.81;;;17.58;100.00
32237;BME280;18726;44.732;10.550;2023-05-01T13:44:42;100910.94;;;17.52;100.00
32237;BME280;18726;44.732;10.550;2023-05-01T13:47:48;100911.31;;;17.47;100.00
32237;BME280;18726;44.732;10.550;2023-05-01T13:50:52;100908.63;;;17.65;100.00
32237;BME280;18726;44.732;10.550;2023-05-01T13:53:57;100913.63;;;17.38;100.00
32237;BME280;18726;44.732;10.550;2023-05-01T13:57:01;100901.06;;;17.30;100.00
32237;BME280;18726;44.732;10.550;2023-05-01T14:00:06;100901.53;;;17.57;100.00
32237;BME280;18726;44.732;10.550;2023-05-01T14:03:16;100902.69;;;17.63;100.00
32237;BME280;18726;44.732;10.550;2023-05-01T14:06:21;100903.09;;;17.58;100.00
32237;BME280;18726;44.732;10.550;2023-05-01T14:09:26;100911.38;;;17.69;100.00
32237;BME280;18726;44.732;10.550;2023-05-01T14:12:31;100900.66;;;17.28;100.00
32237;BME280;18726;44.732;10.550;2023-05-01T14:15:35;100900.28;;;17.37;100.00
32237;BME280;18726;44.732;10.550;2023-05-01T14:18:43;100888.91;;;17.31;100.00
32237;BME280;18726;44.732;10.550;2023-05-01T14:21:47;100891.28;;;17.47;100.00
32237;BME280;18726;44.732;10.550;2023-05-01T14:24:51;100893.78;;;17.87;100.00
32237;BME280;18726;44.732;10.550;2023-05-01T14:27:55;100891.81;;;18.06;100.00
32237;BME280;18726;44.732;10.550;2023-05-01T14:30:59;100893.38;;;18.28;100.00
32237;BME280;18726;44.732;10.550;2023-05-01T14:34:04;100893.38;;;18.46;100.00
32237;BME280;18726;44.732;10.550;2023-05-01T14:37:11;100889.03;;;18.55;100.00
32237;BME280;18726;44.732;10.550;2023-05-01T14:40:24;100893.00;;;18.65;100.00
32237;BME280;18726;44.732;10.550;2023-05-01T14:43:28;100896.13;;;18.74;100.00
32237;BME280;18726;44.732;10.550;2023-05-01T14:46:34;100901.63;;;18.53;100.00
32237;BME280;18726;44.732;10.550;2023-05-01T14:49:40;100915.78;;;18.34;100.00
32237;BME280;18726;44.732;10.550;2023-05-01T14:52:44;100910.28;;;18.37;100.00
32237;BME280;18726;44.732;10.550;2023-05-01T14:55:50;100913.03;;;18.62;100.00
32237;BME280;18726;44.732;10.550;2023-05-01T14:58:53;100907.09;;;18.81;100.00
32237;BME280;18726;44.732;10.550;2023-05-01T15:01:57;100912.66;;;18.71;100.00
32237;BME280;18726;44.732;10.550;2023-05-01T15:05:00;100910.63;;;18.85;100.00
32237;BME280;18726;44.732;10.550;2023-05-01T15:08:04;100908.66;;;18.89;100.00
32237;BME280;18726;44.732;10.550;2023-05-01T15:11:09;100901.94;;;19.05;100.00
32237;BME280;18726;44.732;10.550;2023-05-01T15:14:14;100907.78;;;19.14;100.00
32237;BME280;18726;44.732;10.550;2023-05-01T15:17:17;100903.84;;;19.15;100.00
32237;BME280;18726;44.732;10.550;2023-05-01T15:20:22;100902.69;;;19.09;100.00
32237;BME280;18726;44.732;10.550;2023-05-01T15:23:25;100905.78;;;19.29;100.00
32237;BME280;18726;44.732;10.550;2023-05-01T15:26:30;100908.13;;;19.30;100.00
32237;BME280;18726;44.732;10.550;2023-05-01T15:29:34;100909.31;;;19.29;100.00
32237;BME280;18726;44.732;10.550;2023-05-01T15:32:38;100911.06;;;18.73;100.00
32237;BME280;18726;44.732;10.550;2023-05-01T15:35:42;100907.06;;;18.96;100.00
32237;BME280;18726;44.732;10.550;2023-05-01T15:38:46;100907.38;;;19.26;100.00
32237;BME280;18726;44.732;10.550;2023-05-01T15:41:50;100910.09;;;19.33;100.00
32237;BME280;18726;44.732;10.550;2023-05-01T15:44:54;100910.94;;;19.19;100.00
32237;BME280;18726;44.732;10.550;2023-05-01T15:47:58;100913.31;;;19.14;100.00
32237;BME280;18726;44.732;10.550;2023-05-01T15:51:01;100911.72;;;19.20;100.00
32237;BME280;18726;44.732;10.550;2023-05-01T15:54:06;100918.31;;;19.37;100.00
32237;BME280;18726;44.732;10.550;2023-05-01T15:57:09;100914.06;;;19.18;100.00
32237;BME280;18726;44.732;10.550;2023-05-01T16:00:13;100914.06;;;19.18;100.00
32237;BME280;18726;44.732;10.550;2023-05-01T16:03:17;100911.06;;;18.45;100.00
32237;BME280;18726;44.732;10.550;2023-05-01T16:06:21;100916.56;;;18.02;100.00
32237;BME280;18726;44.732;10.550;2023-05-01T16:09:29;100913.78;;;17.81;100.00
32237;BME280;18726;44.732;10.550;2023-05-01T16:12:33;100914.13;;;17.69;100.00
32237;BME280;18726;44.732;10.550;2023-05-01T16:15:37;100906.63;;;17.59;100.00
32237;BME280;18726;44.732;10.550;2023-05-01T16:18:41;100911.28;;;17.40;100.00
32237;BME280;18726;44.732;10.550;2023-05-01T16:21:44;100903.00;;;17.33;100.00
32237;BME280;18726;44.732;10.550;2023-05-01T16:24:48;100906.16;;;17.32;100.00
32237;BME280;18726;44.732;10.550;2023-05-01T16:27:52;100906.13;;;17.25;100.00
32237;BME280;18726;44.732;10.550;2023-05-01T16:30:55;100912.47;;;17.46;100.00
32237;BME280;18726;44.732;10.550;2023-05-01T16:33:59;100910.88;;;17.31;100.00
32237;BME280;18726;44.732;10.550;2023-05-01T16:37:04;100911.69;;;17.49;100.00
32237;BME280;18726;44.732;10.550;2023-05-01T16:40:08;100915.19;;;17.39;100.00